Time;durP1;ratioP1;P1;durP2;ratioP2;P2;SDS_P1;SDS_P2;PMS_P1;PMS_P2;Temp;Humidity;BMP_temperature;BMP_pressure;BME280_temperature;BME280_humidity;BME280_pressure;Samples;Min_cycle;Max_cycle;Signal;HPM_P1;HPM_P2
2023/07/25 00:00:58;;;;;;;9.38;3.75;;;15.70;99.90;;;;;;5018358;28;20164;-91
2023/07/25 00:03:23;;;;;;;5.35;3.42;;;15.60;99.90;;;;;;5330448;22;20248;-87
2023/07/25 00:05:49;;;;;;;11.05;4.50;;;15.60;99.90;;;;;;5034610;28;20183;-90
2023/07/25 00:08:15;;;;;;;7.38;3.75;;;15.60;99.90;;;;;;5034706;28;20273;-90
2023/07/25 00:10:41;;;;;;;14.43;4.00;;;15.50;99.90;;;;;;5035203;28;20233;-89
2023/07/25 00:13:07;;;;;;;8.18;3.63;;;15.60;99.90;;;;;;5034382;28;20660;-89
2023/07/25 00:15:33;;;;;;;6.07;3.15;;;15.50;99.90;;;;;;5033925;28;20187;-88
2023/07/25 00:31:27;;;;;;;7.22;3.33;;;15.30;99.90;;;;;;5035690;28;20212;-91
2023/07/25 00:33:53;;;;;;;7.93;3.10;;;15.30;99.90;;;;;;5033508;28;20293;-92
2023/07/25 00:36:18;;;;;;;7.40;2.67;;;15.30;99.90;;;;;;5034212;28;20179;-89
2023/07/25 00:38:44;;;;;;;9.98;3.53;;;15.30;99.90;;;;;;5033244;28;20668;-90
2023/07/25 00:41:10;;;;;;;5.65;3.33;;;15.40;99.90;;;;;;5036898;28;20178;-91
2023/07/25 00:43:35;;;;;;;6.68;3.35;;;15.40;99.90;;;;;;5037543;28;20186;-90
2023/07/25 00:46:01;;;;;;;9.52;3.58;;;15.40;99.90;;;;;;5037806;28;20205;-92
2023/07/25 00:48:29;;;;;;;7.32;3.33;;;15.30;99.90;;;;;;5037263;28;20200;-93
2023/07/25 00:50:55;;;;;;;5.80;3.17;;;15.30;99.90;;;;;;5037003;28;20236;-90
2023/07/25 00:53:22;;;;;;;4.55;2.92;;;15.30;99.90;;;;;;5037202;28;20648;-93
2023/07/25 00:55:48;;;;;;;9.05;3.28;;;15.20;99.90;;;;;;5037209;28;20175;-92
2023/07/25 00:58:14;;;;;;;7.50;3.03;;;15.20;99.90;;;;;;5037058;28;20580;-91
2023/07/25 01:00:39;;;;;;;6.82;2.72;;;15.10;99.90;;;;;;5036820;28;20189;-90
2023/07/25 01:03:06;;;;;;;8.00;2.75;;;15.10;99.90;;;;;;5036984;28;20265;-92
2023/07/25 01:05:35;;;;;;;11.88;3.20;;;15.10;99.90;;;;;;5038236;28;20182;-92
2023/07/25 01:08:01;;;;;;;11.52;3.40;;;15.10;99.90;;;;;;5038099;28;20509;-94
2023/07/25 01:10:27;;;;;;;12.95;3.92;;;15.10;99.90;;;;;;5037103;28;20182;-93
2023/07/25 01:12:52;;;;;;;11.20;3.00;;;15.10;99.90;;;;;;5036801;28;20214;-90
2023/07/25 01:15:18;;;;;;;8.38;2.40;;;15.10;99.90;;;;;;5037142;28;20178;-92
2023/07/25 01:17:44;;;;;;;7.45;2.83;;;15.00;99.90;;;;;;5038393;28;20171;-91
2023/07/25 01:20:10;;;;;;;5.63;2.50;;;15.00;99.90;;;;;;5038342;28;20170;-92
2023/07/25 01:22:38;;;;;;;5.70;2.58;;;15.00;99.90;;;;;;5037194;28;20205;-93
2023/07/25 01:25:04;;;;;;;13.27;3.20;;;14.90;99.90;;;;;;5036333;28;20171;-92
2023/07/25 01:27:30;;;;;;;6.93;2.63;;;14.90;99.90;;;;;;5037790;28;20179;-90
2023/07/25 01:29:55;;;;;;;9.45;2.63;;;14.90;99.90;;;;;;5036483;28;20233;-92
2023/07/25 01:32:21;;;;;;;7.63;2.53;;;14.90;99.90;;;;;;5037495;28;20198;-93
2023/07/25 01:34:47;;;;;;;7.90;2.13;;;14.80;99.90;;;;;;5036327;28;20183;-92
2023/07/25 01:37:12;;;;;;;11.07;2.40;;;14.80;99.90;;;;;;5036385;28;20268;-93
2023/07/25 01:39:38;;;;;;;7.90;2.50;;;14.80;99.90;;;;;;5036497;28;20221;-93
2023/07/25 01:42:04;;;;;;;9.48;2.40;;;14.70;99.90;;;;;;5037314;28;20670;-93
2023/07/25 01:44:29;;;;;;;8.07;2.42;;;14.70;99.90;;;;;;5035779;28;20228;-93
2023/07/25 01:46:57;;;;;;;6.45;2.10;;;14.70;99.90;;;;;;5036331;28;20209;-90
2023/07/25 01:49:22;;;;;;;8.15;2.30;;;14.70;99.90;;;;;;5036304;28;20174;-92
2023/07/25 01:51:48;;;;;;;7.03;2.22;;;14.60;99.90;;;;;;5035679;28;20185;-93
2023/07/25 01:54:16;;;;;;;7.63;2.85;;;14.70;99.90;;;;;;5035670;28;20186;-91
2023/07/25 01:56:42;;;;;;;8.45;2.45;;;14.60;99.90;;;;;;5035929;28;20183;-91
2023/07/25 01:59:08;;;;;;;7.55;2.28;;;14.60;99.90;;;;;;5037110;28;20166;-91
2023/07/25 02:01:33;;;;;;;13.90;2.78;;;14.60;99.90;;;;;;5036861;28;20189;-91
2023/07/25 02:03:59;;;;;;;8.70;2.50;;;14.70;99.90;;;;;;5035551;28;20230;-89
2023/07/25 02:06:25;;;;;;;4.70;2.60;;;14.70;99.90;;;;;;5041998;28;20181;-94
2023/07/25 02:08:50;;;;;;;7.07;2.20;;;14.70;99.90;;;;;;5055574;28;20177;-91
2023/07/25 02:11:16;;;;;;;12.43;2.53;;;14.70;99.90;;;;;;5054901;28;20178;-91
2023/07/25 02:13:42;;;;;;;6.32;2.33;;;14.70;99.90;;;;;;5056377;28;20241;-89
2023/07/25 02:16:08;;;;;;;8.93;2.15;;;14.70;99.90;;;;;;5055306;28;20185;-93
2023/07/25 02:18:33;;;;;;;5.75;1.90;;;14.70;99.90;;;;;;5055710;28;20205;-94
2023/07/25 02:20:59;;;;;;;9.13;2.25;;;14.70;99.90;;;;;;5055758;28;20189;-94
2023/07/25 02:23:25;;;;;;;8.30;2.25;;;14.60;99.90;;;;;;5055474;28;20516;-94
2023/07/25 02:25:51;;;;;;;5.30;1.90;;;14.60;99.90;;;;;;5056078;28;20173;-94
2023/07/25 02:28:16;;;;;;;9.65;2.10;;;14.60;99.90;;;;;;5055708;28;20185;-91
2023/07/25 02:30:42;;;;;;;8.43;2.00;;;14.60;99.90;;;;;;5055630;28;20170;-93
2023/07/25 02:33:08;;;;;;;7.60;2.33;;;14.60;99.90;;;;;;5055216;28;20209;-94
2023/07/25 02:35:33;;;;;;;6.07;1.85;;;14.60;99.90;;;;;;5055505;28;20180;-92
2023/07/25 02:37:59;;;;;;;6.40;2.17;;;14.60;99.90;;;;;;5036713;28;20221;-94
2023/07/25 02:40:25;;;;;;;5.60;1.95;;;14.60;99.90;;;;;;5035110;28;20287;-91
2023/07/25 02:42:51;;;;;;;7.07;1.90;;;14.60;99.90;;;;;;5034997;28;20603;-93
2023/07/25 02:45:17;;;;;;;7.95;2.30;;;14.60;99.90;;;;;;5034788;28;20179;-92
2023/07/25 02:47:43;;;;;;;8.38;2.33;;;14.60;99.90;;;;;;5035031;28;20181;-91
2023/07/25 02:50:09;;;;;;;7.07;2.20;;;14.70;99.90;;;;;;5034572;28;20289;-92
2023/07/25 02:52:35;;;;;;;8.50;2.10;;;14.70;99.90;;;;;;5034654;28;20210;-92
2023/07/25 02:55:01;;;;;;;8.73;2.17;;;14.70;99.90;;;;;;5034777;28;20192;-91
2023/07/25 02:57:26;;;;;;;4.78;2.15;;;14.70;99.90;;;;;;5034738;28;20561;-91
2023/07/25 02:59:52;;;;;;;13.40;2.50;;;14.70;99.90;;;;;;5034741;28;20179;-92
2023/07/25 03:02:21;;;;;;;10.38;2.40;;;14.70;99.90;;;;;;5034232;28;20178;-91
2023/07/25 03:04:46;;;;;;;5.07;2.28;;;14.70;99.90;;;;;;5034717;28;20281;-94
2023/07/25 03:07:12;;;;;;;7.82;2.63;;;14.70;99.90;;;;;;5035073;28;20178;-92
2023/07/25 03:09:40;;;;;;;7.47;2.58;;;14.70;99.90;;;;;;5034449;28;20175;-88
2023/07/25 03:12:06;;;;;;;9.02;2.50;;;14.70;99.90;;;;;;5033991;28;20178;-89
2023/07/25 03:14:31;;;;;;;8.65;2.58;;;14.70;99.90;;;;;;5034284;28;20608;-89
2023/07/25 03:16:57;;;;;;;11.90;2.40;;;14.70;99.90;;;;;;5035750;28;20179;-92
2023/07/25 03:19:23;;;;;;;5.70;2.15;;;14.60;99.90;;;;;;5036433;28;20167;-92
2023/07/25 03:21:50;;;;;;;8.57;2.38;;;14.60;99.90;;;;;;5034301;28;20179;-92
2023/07/25 03:24:15;;;;;;;10.82;2.83;;;14.60;99.90;;;;;;5034118;28;20174;-93
2023/07/25 03:26:41;;;;;;;13.63;2.60;;;14.70;99.90;;;;;;5034221;28;20186;-92
2023/07/25 03:29:07;;;;;;;6.38;2.25;;;14.60;99.90;;;;;;5034074;28;20647;-91
2023/07/25 03:31:32;;;;;;;10.00;2.90;;;14.60;99.90;;;;;;5033993;28;20186;-94
2023/07/25 03:33:58;;;;;;;9.00;2.80;;;14.60;99.90;;;;;;5034401;28;20263;-92
2023/07/25 03:36:25;;;;;;;10.27;3.13;;;14.70;99.90;;;;;;5034185;28;20190;-93
2023/07/25 03:38:50;;;;;;;6.15;2.83;;;14.60;99.90;;;;;;5033927;28;20244;-90
2023/07/25 03:41:16;;;;;;;9.90;2.70;;;14.70;99.90;;;;;;5033787;28;20187;-94
2023/07/25 03:43:42;;;;;;;11.13;3.20;;;14.70;99.90;;;;;;5034187;28;20368;-90
2023/07/25 03:46:08;;;;;;;9.98;3.08;;;14.70;99.90;;;;;;5034248;28;20187;-91
2023/07/25 03:48:33;;;;;;;11.60;3.00;;;14.70;99.90;;;;;;5035243;28;20612;-93
2023/07/25 03:50:59;;;;;;;10.70;2.97;;;14.60;99.90;;;;;;5033616;28;20175;-91
2023/07/25 03:53:25;;;;;;;5.68;2.97;;;14.60;99.90;;;;;;5033410;28;20289;-91
2023/07/25 03:55:50;;;;;;;9.35;2.92;;;14.60;99.90;;;;;;5033382;28;20621;-92
2023/07/25 03:58:16;;;;;;;5.40;2.80;;;14.50;99.90;;;;;;5033747;28;20186;-92
2023/07/25 04:00:42;;;;;;;11.15;3.20;;;14.50;99.90;;;;;;5033860;28;20182;-92
2023/07/25 04:03:08;;;;;;;7.60;2.85;;;14.50;99.90;;;;;;5033612;28;20308;-94
2023/07/25 04:05:34;;;;;;;8.65;2.95;;;14.50;99.90;;;;;;5033469;28;20237;-93
2023/07/25 04:07:59;;;;;;;6.55;2.78;;;14.50;99.90;;;;;;5017060;28;20606;-92
2023/07/25 04:10:26;;;;;;;9.52;2.58;;;14.50;99.90;;;;;;5014172;28;20210;-93
2023/07/25 04:12:52;;;;;;;10.57;3.08;;;14.50;99.90;;;;;;5013748;28;20241;-95
2023/07/25 04:15:18;;;;;;;4.80;2.78;;;14.40;99.90;;;;;;5013997;28;20202;-91
2023/07/25 04:17:43;;;;;;;8.50;2.75;;;14.40;99.90;;;;;;5015240;28;20614;-90
2023/07/25 04:20:09;;;;;;;12.40;2.97;;;14.50;99.90;;;;;;5030181;28;20183;-91
2023/07/25 04:22:35;;;;;;;11.10;3.20;;;14.50;99.90;;;;;;5013719;28;20172;-93
2023/07/25 04:25:01;;;;;;;9.45;3.05;;;14.50;99.90;;;;;;5013400;28;20183;-92
2023/07/25 04:27:30;;;;;;;9.05;3.58;;;14.60;99.90;;;;;;5030740;28;20599;-92
2023/07/25 04:29:56;;;;;;;13.75;3.20;;;14.60;99.90;;;;;;5013685;28;20183;-90
2023/07/25 04:32:22;;;;;;;11.32;3.25;;;14.60;99.90;;;;;;5013921;28;20272;-91
2023/07/25 04:34:48;;;;;;;8.38;3.10;;;14.70;99.90;;;;;;5013392;28;20204;-91
2023/07/25 04:37:13;;;;;;;13.07;3.00;;;14.70;99.90;;;;;;5024541;28;20565;-91
2023/07/25 04:39:39;;;;;;;7.97;2.88;;;14.70;99.90;;;;;;5034322;28;20679;-94
2023/07/25 04:42:05;;;;;;;9.00;2.88;;;14.80;99.90;;;;;;5033030;28;20209;-91
2023/07/25 04:44:31;;;;;;;11.23;3.10;;;14.80;99.90;;;;;;5033105;28;20647;-92
2023/07/25 04:46:56;;;;;;;10.80;3.58;;;14.90;99.90;;;;;;5033115;28;20183;-92
2023/07/25 04:49:22;;;;;;;7.30;3.13;;;14.90;99.90;;;;;;5034724;28;20159;-92
2023/07/25 04:51:48;;;;;;;7.07;2.65;;;14.90;99.90;;;;;;5033382;28;20179;-93
2023/07/25 04:54:14;;;;;;;11.98;3.38;;;14.90;99.90;;;;;;5032989;28;20218;-91
2023/07/25 04:56:41;;;;;;;9.98;2.88;;;15.00;99.90;;;;;;5034216;28;20217;-93
2023/07/25 04:59:07;;;;;;;12.85;3.13;;;15.00;99.90;;;;;;5033167;28;20175;-92
2023/07/25 05:01:34;;;;;;;10.80;3.05;;;15.00;99.90;;;;;;5033027;28;20178;-91
2023/07/25 05:04:00;;;;;;;7.32;2.55;;;15.00;99.90;;;;;;5032418;28;20234;-92
2023/07/25 05:06:25;;;;;;;7.30;3.20;;;15.00;99.90;;;;;;5032694;28;20240;-91
2023/07/25 05:08:51;;;;;;;7.38;2.80;;;15.10;99.90;;;;;;5032650;28;20281;-89
2023/07/25 05:11:17;;;;;;;6.93;2.92;;;15.10;99.90;;;;;;5032715;28;20190;-93
2023/07/25 05:13:43;;;;;;;7.07;3.00;;;15.20;99.90;;;;;;5032904;28;20213;-91
2023/07/25 05:16:08;;;;;;;12.85;3.72;;;15.20;99.90;;;;;;5032921;28;20201;-92
2023/07/25 05:18:34;;;;;;;12.00;2.97;;;15.20;99.90;;;;;;5034129;28;20174;-88
2023/07/25 05:20:59;;;;;;;11.02;3.15;;;15.20;99.90;;;;;;5033725;28;20171;-90
2023/07/25 05:23:25;;;;;;;9.07;2.88;;;15.20;99.90;;;;;;5032452;28;20621;-91
2023/07/25 05:25:51;;;;;;;9.00;3.00;;;15.20;99.90;;;;;;5033101;28;20261;-90
2023/07/25 05:28:19;;;;;;;7.53;3.47;;;15.30;99.90;;;;;;5036830;28;20524;-92
2023/07/25 05:30:44;;;;;;;9.40;3.30;;;15.20;99.90;;;;;;5036401;28;20208;-93
2023/07/25 05:33:10;;;;;;;11.23;3.25;;;15.30;99.90;;;;;;5037404;28;20291;-95
2023/07/25 05:35:36;;;;;;;9.32;2.75;;;15.30;99.90;;;;;;5037249;28;20181;-93
2023/07/25 05:38:02;;;;;;;11.43;3.05;;;15.30;99.90;;;;;;5036444;28;20182;-91
2023/07/25 05:40:28;;;;;;;10.90;3.60;;;15.30;99.90;;;;;;5036076;28;20182;-92
2023/07/25 05:42:54;;;;;;;8.25;3.85;;;15.30;99.90;;;;;;5036149;28;20189;-90
2023/07/25 05:45:20;;;;;;;9.73;3.05;;;15.30;99.90;;;;;;5036364;28;20182;-91
2023/07/25 05:47:46;;;;;;;9.77;3.00;;;15.30;99.90;;;;;;5036225;28;20233;-91
2023/07/25 05:50:12;;;;;;;9.05;3.33;;;15.30;99.90;;;;;;5037063;28;20206;-90
2023/07/25 05:52:38;;;;;;;6.93;3.00;;;15.30;99.90;;;;;;5036012;28;20206;-91
2023/07/25 05:55:04;;;;;;;5.97;3.58;;;15.30;99.90;;;;;;5035736;28;20209;-93
2023/07/25 05:57:30;;;;;;;9.98;3.55;;;15.30;99.90;;;;;;5035857;28;20274;-92
2023/07/25 05:59:55;;;;;;;7.45;3.13;;;15.30;99.90;;;;;;5035837;28;20214;-92
2023/07/25 06:02:21;;;;;;;8.02;3.38;;;15.30;99.90;;;;;;5035517;28;20179;-92
2023/07/25 06:04:47;;;;;;;9.27;3.00;;;15.30;99.90;;;;;;5035533;28;20271;-91
2023/07/25 06:07:15;;;;;;;10.10;3.40;;;15.30;99.90;;;;;;5034665;28;20187;-93
2023/07/25 06:09:41;;;;;;;10.35;3.28;;;15.30;99.90;;;;;;5035450;28;20220;-91
2023/07/25 06:12:08;;;;;;;7.13;3.20;;;15.40;99.90;;;;;;5035192;28;20257;-93
2023/07/25 06:14:35;;;;;;;7.30;3.45;;;15.50;99.90;;;;;;5035252;28;20208;-91
2023/07/25 06:17:00;;;;;;;13.15;3.85;;;15.60;99.90;;;;;;5035464;28;20182;-91
2023/07/25 06:19:26;;;;;;;13.10;3.85;;;15.70;99.90;;;;;;5035876;28;20189;-94
2023/07/25 06:21:52;;;;;;;10.35;3.58;;;15.70;99.90;;;;;;5035949;28;20193;-93
2023/07/25 06:24:18;;;;;;;9.38;3.05;;;15.80;99.90;;;;;;5035147;28;20181;-91
2023/07/25 06:26:44;;;;;;;8.05;3.10;;;15.80;99.90;;;;;;5035463;28;20214;-92
2023/07/25 06:29:10;;;;;;;7.82;2.70;;;15.90;99.90;;;;;;5036512;28;20602;-92
2023/07/25 06:31:36;;;;;;;11.85;3.13;;;16.00;99.90;;;;;;5036463;28;20163;-92
2023/07/25 06:34:02;;;;;;;11.30;3.38;;;16.00;99.90;;;;;;5035351;28;20225;-94
2023/07/25 06:36:28;;;;;;;7.43;2.50;;;16.10;99.90;;;;;;5034995;28;20182;-94
2023/07/25 06:38:53;;;;;;;4.65;2.30;;;16.20;99.90;;;;;;5035216;28;20236;-93
2023/07/25 06:41:19;;;;;;;8.30;3.50;;;16.20;99.90;;;;;;5036091;28;20201;-93
2023/07/25 06:43:45;;;;;;;11.13;2.90;;;16.20;99.90;;;;;;5035021;28;20202;-94
2023/07/25 06:46:10;;;;;;;5.43;2.58;;;16.20;99.90;;;;;;5034920;28;20266;-93
2023/07/25 06:48:36;;;;;;;7.85;2.70;;;16.20;99.90;;;;;;5035123;28;20178;-92
2023/07/25 06:51:02;;;;;;;7.75;2.38;;;16.20;99.90;;;;;;5034823;28;20206;-93
2023/07/25 06:53:28;;;;;;;11.40;2.40;;;16.20;99.90;;;;;;5034507;28;20655;-93
2023/07/25 06:55:54;;;;;;;10.07;2.65;;;16.20;99.90;;;;;;5034948;28;20281;-92
2023/07/25 06:58:19;;;;;;;11.27;2.78;;;16.20;99.90;;;;;;5035162;28;20183;-91
2023/07/25 07:00:46;;;;;;;6.82;2.63;;;16.20;99.90;;;;;;5034788;28;20531;-92
2023/07/25 07:03:12;;;;;;;15.20;3.35;;;16.10;99.90;;;;;;5035111;28;20264;-93
2023/07/25 07:05:38;;;;;;;13.88;2.92;;;16.10;99.90;;;;;;5034543;28;20210;-92
2023/07/25 07:08:04;;;;;;;11.50;2.90;;;16.10;99.90;;;;;;5034457;28;20217;-93
2023/07/25 07:10:32;;;;;;;9.73;3.00;;;16.00;99.90;;;;;;5034408;28;20202;-92
2023/07/25 07:12:58;;;;;;;10.00;2.60;;;16.00;99.90;;;;;;5034289;28;20268;-93
2023/07/25 07:15:26;;;;;;;9.98;2.97;;;16.00;99.90;;;;;;5034477;28;20179;-92
2023/07/25 07:17:53;;;;;;;8.82;2.80;;;16.10;99.90;;;;;;5034652;28;20525;-93
2023/07/25 07:20:20;;;;;;;5.85;2.45;;;16.20;99.90;;;;;;5034774;28;20221;-92
2023/07/25 07:22:46;;;;;;;7.57;2.50;;;16.20;99.90;;;;;;5034563;28;20183;-91
2023/07/25 07:25:12;;;;;;;7.72;2.58;;;16.10;99.90;;;;;;5035692;28;20170;-93
2023/07/25 07:27:38;;;;;;;10.63;2.53;;;16.00;99.90;;;;;;5034552;28;20597;-93
2023/07/25 07:30:04;;;;;;;6.63;2.60;;;15.90;99.90;;;;;;5034432;28;20265;-93
2023/07/25 07:32:30;;;;;;;7.47;2.53;;;15.90;99.90;;;;;;5034337;28;20243;-94
2023/07/25 07:34:56;;;;;;;10.68;3.30;;;16.00;99.90;;;;;;5033835;28;20261;-93
2023/07/25 07:37:23;;;;;;;4.50;2.53;;;16.00;99.90;;;;;;5045344;28;20502;-94
2023/07/25 07:39:48;;;;;;;7.57;3.03;;;16.00;99.90;;;;;;5053898;28;20181;-94
2023/07/25 07:42:14;;;;;;;7.18;2.70;;;16.10;99.90;;;;;;5054150;28;20178;-94
2023/07/25 07:44:40;;;;;;;8.45;2.95;;;16.20;99.90;;;;;;5053810;28;20178;-93
2023/07/25 07:47:06;;;;;;;9.30;2.72;;;16.20;99.90;;;;;;5053682;28;20181;-94
2023/07/25 07:49:35;;;;;;;8.20;2.67;;;16.30;99.90;;;;;;5053113;28;20235;-92
2023/07/25 07:52:01;;;;;;;12.63;2.78;;;16.30;99.90;;;;;;5053732;28;20537;-94
2023/07/25 07:54:26;;;;;;;8.85;2.47;;;16.40;99.90;;;;;;5053452;28;20312;-91
2023/07/25 07:56:52;;;;;;;6.32;2.60;;;16.40;99.90;;;;;;5053970;28;20257;-93
2023/07/25 07:59:18;;;;;;;12.68;2.85;;;16.40;99.90;;;;;;5053665;28;20624;-92
2023/07/25 08:01:44;;;;;;;7.20;2.17;;;16.40;99.90;;;;;;5054125;28;20223;-93
2023/07/25 08:04:11;;;;;;;7.75;2.40;;;16.30;99.90;;;;;;5053323;28;20384;-92
2023/07/25 08:06:36;;;;;;;8.35;2.47;;;16.40;99.90;;;;;;5049331;28;20194;-92
2023/07/25 08:09:02;;;;;;;7.38;2.20;;;16.60;99.90;;;;;;5033977;28;20178;-95
2023/07/25 08:11:28;;;;;;;10.85;2.92;;;16.90;99.90;;;;;;5033414;28;20167;-92
2023/07/25 08:13:54;;;;;;;8.80;2.65;;;17.20;99.90;;;;;;5033304;28;20790;-91
2023/07/25 08:16:19;;;;;;;6.72;2.25;;;17.50;99.90;;;;;;5033364;28;20190;-93
2023/07/25 08:18:45;;;;;;;5.78;2.17;;;17.60;99.90;;;;;;5034055;28;20183;-91
2023/07/25 08:21:11;;;;;;;7.32;2.40;;;17.90;99.90;;;;;;5033511;28;20233;-92
2023/07/25 08:23:36;;;;;;;11.30;3.25;;;18.10;99.90;;;;;;5033294;28;20274;-91
2023/07/25 08:26:02;;;;;;;6.72;2.05;;;18.20;99.90;;;;;;5033136;28;20231;-93
2023/07/25 08:28:28;;;;;;;7.88;2.38;;;18.30;99.90;;;;;;5033325;28;20188;-92
2023/07/25 08:31:02;;;;;;;8.82;1.92;;;18.10;99.90;;;;;;5033117;28;20181;-92
2023/07/25 08:33:32;;;;;;;7.75;1.98;;;18.00;99.90;;;;;;5033001;28;20210;-92
2023/07/25 08:35:58;;;;;;;7.50;2.22;;;18.10;99.90;;;;;;5033489;28;20613;-92
2023/07/25 08:38:24;;;;;;;9.75;2.03;;;18.20;99.90;;;;;;5033858;28;20218;-92
2023/07/25 08:41:02;;;;;;;6.45;1.70;;;18.10;99.90;;;;;;5033737;28;20701;-93
2023/07/25 08:43:30;;;;;;;5.97;2.03;;;18.10;99.90;;;;;;5033326;28;20182;-94
2023/07/25 08:45:58;;;;;;;6.10;1.92;;;17.90;99.90;;;;;;5033630;28;20514;-93
2023/07/25 08:48:26;;;;;;;5.63;1.88;;;17.70;99.90;;;;;;5033571;28;20182;-91
2023/07/25 08:50:57;;;;;;;6.22;1.77;;;17.60;99.90;;;;;;5033595;28;20202;-93
2023/07/25 08:53:24;;;;;;;6.85;1.92;;;17.40;99.90;;;;;;5033112;28;20240;-93
2023/07/25 08:55:52;;;;;;;8.48;1.92;;;17.30;99.90;;;;;;5033646;28;20274;-91
2023/07/25 08:58:18;;;;;;;8.88;2.30;;;17.30;99.90;;;;;;5033948;28;20178;-90
2023/07/25 09:00:45;;;;;;;5.85;2.00;;;17.20;99.90;;;;;;5034008;28;20261;-93
2023/07/25 09:03:11;;;;;;;8.05;2.00;;;17.50;99.90;;;;;;5037411;28;20218;-93
2023/07/25 09:05:38;;;;;;;4.25;1.50;;;17.80;99.90;;;;;;5037206;28;20554;-92
2023/07/25 09:08:03;;;;;;;9.32;2.10;;;18.10;99.90;;;;;;5021889;28;20572;-91
2023/07/25 09:10:29;;;;;;;6.28;1.50;;;18.40;99.90;;;;;;5018611;28;20498;-94
2023/07/25 09:12:55;;;;;;;5.85;1.67;;;18.60;99.90;;;;;;5018321;28;20273;-92
2023/07/25 09:15:21;;;;;;;6.35;1.98;;;18.90;99.90;;;;;;5017487;28;20190;-91
2023/07/25 09:17:48;;;;;;;7.05;1.50;;;19.00;99.90;;;;;;5017687;28;20183;-93
2023/07/25 09:20:16;;;;;;;18.90;2.03;;;19.30;99.90;;;;;;5018357;28;20233;-93
2023/07/25 09:22:47;;;;;;;8.15;1.35;;;19.60;99.90;;;;;;5017562;28;20176;-92
2023/07/25 09:25:14;;;;;;;25.48;2.33;;;19.80;99.90;;;;;;5017573;28;20171;-91
2023/07/25 09:27:44;;;;;;;9.90;1.52;;;19.90;99.90;;;;;;5017306;28;20671;-89
2023/07/25 09:30:12;;;;;;;6.85;1.60;;;19.60;99.90;;;;;;5017010;28;20183;-92
2023/07/25 09:32:43;;;;;;;5.00;1.73;;;19.30;99.90;;;;;;5016916;28;20324;-91
2023/07/25 09:35:11;;;;;;;7.65;1.85;;;19.10;99.90;;;;;;5016679;28;20179;-90
2023/07/25 09:37:37;;;;;;;3.78;1.60;;;19.10;99.90;;;;;;5028908;28;20182;-91
2023/07/25 09:40:08;;;;;;;3.50;1.25;;;19.20;99.90;;;;;;5036149;28;20190;-91
2023/07/25 09:42:40;;;;;;;5.10;1.80;;;19.30;99.90;;;;;;5036201;28;20190;-93
2023/07/25 09:45:08;;;;;;;5.70;1.40;;;19.20;99.90;;;;;;5036450;28;20202;-91
2023/07/25 09:47:35;;;;;;;4.32;1.35;;;19.00;99.90;;;;;;5036265;28;20190;-91
2023/07/25 09:50:04;;;;;;;4.95;1.30;;;18.70;99.90;;;;;;5036403;28;20175;-92
2023/07/25 09:52:42;;;;;;;4.72;1.60;;;18.50;99.90;;;;;;5036012;28;20205;-92
2023/07/25 09:55:09;;;;;;;5.28;1.33;;;18.10;99.90;;;;;;5032883;28;20186;-92
2023/07/25 09:57:35;;;;;;;5.25;1.17;;;17.80;99.90;;;;;;5035949;28;20214;-94
2023/07/25 10:00:03;;;;;;;3.60;1.38;;;17.70;99.90;;;;;;5036125;28;20635;-95
2023/07/25 10:02:29;;;;;;;8.98;2.20;;;17.60;99.90;;;;;;5035533;28;20558;-93
2023/07/25 10:04:56;;;;;;;8.93;1.80;;;17.50;99.90;;;;;;5035688;28;20206;-93
2023/07/25 10:07:24;;;;;;;5.70;2.17;;;17.50;99.90;;;;;;5036165;28;20277;-92
2023/07/25 10:09:56;;;;;;;8.10;1.75;;;17.40;99.90;;;;;;5035300;28;20621;-92
2023/07/25 10:12:22;;;;;;;5.15;1.80;;;17.40;99.90;;;;;;5034972;28;20166;-89
2023/07/25 10:14:48;;;;;;;6.43;1.73;;;17.80;99.90;;;;;;5035900;28;20535;-91
2023/07/25 10:17:14;;;;;;;8.35;1.90;;;18.40;99.90;;;;;;5036313;28;20309;-93
2023/07/25 10:19:50;;;;;;;4.18;1.80;;;18.70;99.90;;;;;;5036412;28;20178;-93
2023/07/25 10:22:17;;;;;;;7.90;1.70;;;18.90;99.90;;;;;;5035949;28;20166;-93
2023/07/25 10:24:42;;;;;;;6.75;1.60;;;19.00;99.90;;;;;;5035886;28;20613;-93
2023/07/25 10:27:11;;;;;;;5.75;1.85;;;18.80;99.90;;;;;;5035060;28;20182;-92
2023/07/25 10:29:45;;;;;;;4.88;1.50;;;18.70;99.90;;;;;;5035371;28;20194;-94
2023/07/25 10:32:15;;;;;;;5.38;1.58;;;18.60;99.90;;;;;;5035531;28;20171;-94
2023/07/25 10:35:00;;;;;;;6.22;1.83;;;18.50;99.90;;;;;;5035479;28;20191;-94
2023/07/25 10:37:35;;;;;;;6.10;1.73;;;18.30;99.90;;;;;;5036647;28;20183;-93
2023/07/25 10:40:23;;;;;;;6.10;1.77;;;18.10;99.90;;;;;;5035760;28;20223;-93
2023/07/25 10:42:58;;;;;;;11.80;1.65;;;17.90;99.90;;;;;;5051726;28;20192;-92
2023/07/25 10:45:32;;;;;;;5.43;1.73;;;17.80;99.90;;;;;;5035392;28;20166;-92
2023/07/25 10:48:02;;;;;;;4.40;1.60;;;17.70;99.90;;;;;;5035292;28;20173;-91
2023/07/25 10:50:51;;;;;;;7.00;1.70;;;17.60;99.90;;;;;;5035287;28;20640;-91
2023/07/25 10:53:21;;;;;;;6.68;1.98;;;17.60;99.90;;;;;;5034761;28;20656;-92
2023/07/25 10:56:10;;;;;;;8.52;2.00;;;17.60;99.90;;;;;;5035442;28;20178;-94
2023/07/25 10:59:00;;;;;;;6.43;1.77;;;17.60;99.90;;;;;;5026944;28;20194;-93
2023/07/25 11:01:46;;;;;;;4.60;1.50;;;17.90;99.90;;;;;;5034988;28;20171;-96
2023/07/25 11:04:23;;;;;;;4.95;1.65;;;18.20;99.90;;;;;;5035698;28;20317;-94
2023/07/25 11:06:50;;;;;;;5.75;1.70;;;18.60;99.90;;;;;;5041485;28;20190;-91
2023/07/25 11:09:16;;;;;;;6.22;1.50;;;19.00;99.90;;;;;;5056789;28;20272;-94
2023/07/25 11:11:46;;;;;;;8.10;1.50;;;19.40;99.90;;;;;;5055528;28;20174;-93
2023/07/25 11:14:15;;;;;;;11.15;1.90;;;19.60;99.90;;;;;;5057943;28;20812;-94
2023/07/25 11:16:41;;;;;;;7.97;1.85;;;19.80;99.90;;;;;;5056303;28;20272;-96
2023/07/25 11:19:09;;;;;;;8.43;1.67;;;19.90;99.90;;;;;;5057399;28;20178;-95
2023/07/25 11:21:43;;;;;;;6.43;1.40;;;20.10;99.90;;;;;;5055598;28;20178;-94
2023/07/25 11:24:11;;;;;;;4.22;1.38;;;20.30;99.90;;;;;;5057134;28;20177;-95
2023/07/25 11:26:38;;;;;;;3.83;1.80;;;20.40;99.90;;;;;;5057681;28;20568;-94
2023/07/25 11:29:12;;;;;;;2.42;1.35;;;20.50;99.90;;;;;;5056140;28;20182;-94
2023/07/25 11:31:45;;;;;;;4.38;1.65;;;20.60;99.90;;;;;;5056360;28;20170;-94
2023/07/25 11:34:16;;;;;;;4.55;1.30;;;20.60;99.90;;;;;;5059470;28;20304;-94
2023/07/25 11:36:43;;;;;;;5.35;1.70;;;20.80;99.90;;;;;;5050931;28;20214;-95
2023/07/25 11:39:10;;;;;;;9.13;1.77;;;20.80;99.90;;;;;;5038494;28;20202;-92
2023/07/25 11:41:38;;;;;;;6.68;1.50;;;20.90;99.90;;;;;;5037493;28;20261;-92
2023/07/25 11:44:11;;;;;;;4.85;1.63;;;20.90;99.90;;;;;;5037680;28;20181;-93
2023/07/25 11:46:43;;;;;;;5.85;1.50;;;20.80;99.90;;;;;;5038499;28;20216;-95
2023/07/25 11:49:10;;;;;;;4.75;1.58;;;20.70;99.90;;;;;;5040173;28;20174;-94
2023/07/25 11:51:37;;;;;;;4.82;1.30;;;20.60;99.90;;;;;;5041450;28;20186;-94
2023/07/25 11:54:04;;;;;;;4.78;1.30;;;20.50;99.90;;;;;;5042321;28;20214;-96
2023/07/25 11:56:33;;;;;;;5.95;1.52;;;20.50;99.90;;;;;;5045695;28;20178;-96
2023/07/25 11:59:00;;;;;;;5.53;1.48;;;20.30;99.90;;;;;;5022126;28;20615;-95
2023/07/25 12:01:32;;;;;;;6.55;1.77;;;20.40;99.90;;;;;;5037442;28;20178;-95
2023/07/25 12:04:02;;;;;;;3.17;1.10;;;20.40;99.90;;;;;;5043596;28;20321;-96
2023/07/25 12:06:32;;;;;;;3.78;1.20;;;20.40;99.90;;;;;;5042685;28;20216;-96
2023/07/25 12:09:01;;;;;;;3.83;1.40;;;20.50;99.90;;;;;;5061349;28;20162;-95
2023/07/25 12:11:27;;;;;;;3.85;1.05;;;20.50;99.90;;;;;;5058086;28;20512;-95
2023/07/25 12:13:54;;;;;;;3.80;1.20;;;20.60;99.90;;;;;;5042833;28;20239;-95
2023/07/25 12:16:35;;;;;;;6.00;1.50;;;20.70;99.90;;;;;;5060080;28;20207;-96
2023/07/25 12:19:11;;;;;;;4.45;1.10;;;20.70;99.90;;;;;;5049100;22;20234;-95
2023/07/25 12:21:45;;;;;;;2.85;1.20;;;20.80;99.90;;;;;;5022111;28;20171;-96
2023/07/25 12:24:15;;;;;;;4.70;1.20;;;20.70;98.70;;;;;;5006961;28;20182;-96
2023/07/25 12:26:51;;;;;;;3.55;1.35;;;20.50;98.50;;;;;;5030988;28;20193;-96
2023/07/25 12:29:24;;;;;;;5.30;1.30;;;20.30;99.90;;;;;;5022277;28;20618;-96
2023/07/25 12:31:51;;;;;;;3.92;1.35;;;20.10;99.90;;;;;;5020177;28;20270;-95
2023/07/25 12:34:18;;;;;;;3.03;1.10;;;19.90;99.90;;;;;;5022162;28;20263;-96
2023/07/25 12:36:49;;;;;;;4.63;1.27;;;19.80;99.90;;;;;;5032455;28;20179;-94
2023/07/25 12:39:15;;;;;;;3.75;1.00;;;19.70;99.90;;;;;;5027208;28;20517;-93
2023/07/25 12:41:45;;;;;;;1.67;0.80;;;19.70;99.40;;;;;;5026851;28;20186;-96
2023/07/25 12:44:11;;;;;;;3.78;1.17;;;19.70;98.70;;;;;;5031227;28;20199;-94
2023/07/25 12:46:40;;;;;;;5.75;1.17;;;19.80;99.90;;;;;;5030153;28;20266;-95
2023/07/25 12:49:07;;;;;;;2.30;0.80;;;19.90;99.90;;;;;;5027117;28;20179;-94
2023/07/25 12:51:34;;;;;;;5.32;0.95;;;20.00;98.60;;;;;;5029480;28;20213;-92
2023/07/25 12:54:00;;;;;;;4.68;0.90;;;20.10;99.00;;;;;;5028564;28;20238;-93
2023/07/25 12:56:26;;;;;;;4.15;1.17;;;20.10;99.90;;;;;;5028103;28;20269;-92
2023/07/25 12:58:51;;;;;;;7.93;1.52;;;20.30;99.40;;;;;;5027502;28;20213;-92